Time;durP1;ratioP1;P1;durP2;ratioP2;P2;SDS_P1;SDS_P2;PMS_P1;PMS_P2;Temp;Humidity;BMP_temperature;BMP_pressure;BME280_temperature;BME280_humidity;BME280_pressure;Samples;Min_cycle;Max_cycle;Signal;HPM_P1;HPM_P2
2022/03/15 00:04:24;;;;;;;7.05;5.58;;;11.40;99.90;;;;;;1948003;72;22245;-88
2022/03/15 00:07:38;;;;;;;6.35;5.28;;;11.40;99.90;;;;;;1944392;73;21092;-88
2022/03/15 00:10:30;;;;;;;6.33;4.92;;;11.40;99.90;;;;;;1935056;73;21071;-88
2022/03/15 00:16:13;;;;;;;5.75;5.08;;;11.40;99.90;;;;;;1945574;72;22167;-88
2022/03/15 00:19:23;;;;;;;6.05;4.78;;;11.40;99.90;;;;;;1905290;74;21080;-89
2022/03/15 00:22:17;;;;;;;5.58;4.90;;;11.40;99.90;;;;;;1926552;74;21339;-88
2022/03/15 00:25:11;;;;;;;5.25;4.70;;;11.40;99.90;;;;;;1915279;74;21066;-88
2022/03/15 00:30:41;;;;;;;6.60;4.80;;;11.40;99.90;;;;;;1953215;72;22110;-84
2022/03/15 00:33:50;;;;;;;6.70;5.03;;;11.30;99.90;;;;;;1902309;75;21066;-85
2022/03/15 00:36:42;;;;;;;5.78;5.20;;;11.30;99.90;;;;;;1895787;75;21097;-86
2022/03/15 00:39:35;;;;;;;5.75;4.72;;;11.40;99.90;;;;;;1892919;75;21040;-88
2022/03/15 00:45:10;;;;;;;6.15;4.35;;;11.40;99.90;;;;;;1936868;72;22126;-87
2022/03/15 00:48:21;;;;;;;5.00;4.33;;;11.40;99.90;;;;;;1899414;75;21032;-88
2022/03/15 00:51:12;;;;;;;4.92;4.42;;;11.40;99.90;;;;;;1883873;75;21135;-88
2022/03/15 00:54:03;;;;;;;6.08;4.75;;;11.40;99.90;;;;;;1894916;75;21484;-88
2022/03/15 00:56:57;;;;;;;6.60;4.72;;;11.40;99.90;;;;;;1885807;75;21229;-89
2022/03/15 00:59:48;;;;;;;4.72;4.22;;;11.40;99.90;;;;;;1896269;75;21108;-88
2022/03/15 01:02:41;;;;;;;5.50;4.58;;;11.40;99.90;;;;;;1896738;75;21168;-88
2022/03/15 01:05:33;;;;;;;5.20;4.25;;;11.30;99.90;;;;;;1884828;75;21060;-88
2022/03/15 01:08:26;;;;;;;7.42;4.92;;;11.30;99.90;;;;;;1900269;75;21172;-88
2022/03/15 01:11:17;;;;;;;5.78;5.03;;;11.40;99.90;;;;;;1895151;75;21103;-87
2022/03/15 01:14:09;;;;;;;6.03;5.05;;;11.30;99.90;;;;;;1903073;75;21119;-88
2022/03/15 01:17:02;;;;;;;7.15;5.28;;;11.20;99.90;;;;;;1905164;75;21134;-87
2022/03/15 01:19:53;;;;;;;6.20;5.05;;;11.20;99.90;;;;;;1888603;75;21183;-88
2022/03/15 01:22:44;;;;;;;6.33;5.17;;;11.10;99.90;;;;;;1890518;75;21139;-88
2022/03/15 01:25:37;;;;;;;8.90;5.03;;;11.10;99.90;;;;;;1905115;75;21110;-88
2022/03/15 01:31:12;;;;;;;6.60;5.15;;;11.00;99.90;;;;;;1961477;72;22173;-87
2022/03/15 01:37:07;;;;;;;6.58;5.50;;;11.10;99.90;;;;;;1965937;72;20133;-87
2022/03/15 01:40:17;;;;;;;6.40;5.15;;;11.10;99.90;;;;;;1917741;75;21114;-89
2022/03/15 01:43:09;;;;;;;5.95;4.87;;;11.10;99.90;;;;;;1939088;73;21787;-89
2022/03/15 01:46:00;;;;;;;6.45;4.97;;;11.10;99.90;;;;;;1958206;73;21122;-89
2022/03/15 01:51:33;;;;;;;7.22;5.65;;;11.10;99.90;;;;;;1946127;72;22648;-87
2022/03/15 01:54:44;;;;;;;6.15;5.35;;;11.10;99.90;;;;;;1922933;73;21158;-89
2022/03/15 01:57:37;;;;;;;7.85;5.37;;;10.90;99.90;;;;;;1917851;75;21058;-87
2022/03/15 02:00:30;;;;;;;7.42;4.90;;;10.90;99.90;;;;;;1912046;75;21067;-87
2022/03/15 02:03:23;;;;;;;7.05;5.58;;;10.90;99.90;;;;;;1923185;74;21055;-88
2022/03/15 02:06:15;;;;;;;6.78;5.10;;;10.90;99.90;;;;;;1929035;74;21103;-89
2022/03/15 02:09:10;;;;;;;6.33;5.28;;;11.00;99.90;;;;;;1929082;74;21157;-88
2022/03/15 02:14:45;;;;;;;7.47;5.58;;;11.00;99.90;;;;;;1963043;72;22917;-87
2022/03/15 02:17:55;;;;;;;6.65;5.00;;;11.00;99.90;;;;;;1926038;73;21157;-89
2022/03/15 02:20:46;;;;;;;8.63;5.60;;;11.00;99.90;;;;;;1917544;73;21131;-89
2022/03/15 02:23:38;;;;;;;7.95;5.58;;;10.90;99.90;;;;;;1915618;74;21526;-88
2022/03/15 02:29:10;;;;;;;7.75;5.45;;;10.90;99.90;;;;;;1964411;72;22135;-87
2022/03/15 02:34:59;;;;;;;8.73;5.00;;;11.00;99.90;;;;;;1953549;72;22117;-90
2022/03/15 02:38:09;;;;;;;7.40;5.15;;;11.00;99.90;;;;;;1897892;74;21074;-89
2022/03/15 02:41:00;;;;;;;7.10;5.50;;;11.00;99.90;;;;;;1902072;75;21189;-89
2022/03/15 02:43:52;;;;;;;6.62;5.05;;;11.00;99.90;;;;;;1896986;75;21131;-88
2022/03/15 02:46:44;;;;;;;8.05;5.62;;;11.00;99.90;;;;;;1895812;75;21083;-89
2022/03/15 02:49:35;;;;;;;6.67;5.05;;;11.00;99.90;;;;;;1895508;75;21058;-88
2022/03/15 02:52:28;;;;;;;8.48;5.40;;;10.90;99.90;;;;;;1917777;75;21588;-89
2022/03/15 02:55:19;;;;;;;8.63;5.22;;;10.90;99.90;;;;;;1897936;75;21106;-89
2022/03/15 02:58:11;;;;;;;7.10;5.47;;;11.00;99.90;;;;;;1903769;75;21155;-89
2022/03/15 03:01:03;;;;;;;5.62;5.03;;;11.00;99.90;;;;;;1884727;75;21088;-89
2022/03/15 03:03:54;;;;;;;6.55;5.50;;;11.00;99.90;;;;;;1917098;75;21102;-88
2022/03/15 03:06:46;;;;;;;10.45;5.92;;;11.00;99.90;;;;;;1899092;75;21122;-88
2022/03/15 03:12:28;;;;;;;8.68;5.17;;;11.10;99.90;;;;;;1948644;72;22259;-89
2022/03/15 03:15:38;;;;;;;5.83;5.17;;;11.10;99.90;;;;;;1921572;73;21118;-88
2022/03/15 03:21:13;;;;;;;7.80;5.45;;;11.20;99.90;;;;;;1946189;72;22280;-87
2022/03/15 03:27:10;;;;;;;6.30;5.12;;;11.30;99.90;;;;;;1940060;72;22155;-87
2022/03/15 03:30:19;;;;;;;6.50;4.72;;;11.30;99.90;;;;;;1885933;75;21569;-87
2022/03/15 03:33:11;;;;;;;5.97;4.62;;;11.30;99.90;;;;;;1905411;75;21106;-88
2022/03/15 03:36:04;;;;;;;5.17;4.67;;;11.30;99.90;;;;;;1873159;76;21130;-88
2022/03/15 03:38:55;;;;;;;7.75;4.95;;;11.30;99.90;;;;;;1884752;75;21103;-88
2022/03/15 03:44:26;;;;;;;7.70;4.70;;;11.30;99.90;;;;;;1947095;72;22134;-88
2022/03/15 03:47:36;;;;;;;6.45;5.05;;;11.30;99.90;;;;;;1891534;75;21063;-89
2022/03/15 03:50:28;;;;;;;6.80;4.67;;;11.30;99.90;;;;;;1886733;75;21132;-89
2022/03/15 03:55:59;;;;;;;7.00;4.97;;;11.30;99.90;;;;;;1945134;72;22096;-87
2022/03/15 03:59:11;;;;;;;5.62;4.70;;;11.30;99.90;;;;;;1894820;75;21039;-89
2022/03/15 04:02:02;;;;;;;5.15;4.60;;;11.30;99.90;;;;;;1905136;75;21103;-88
2022/03/15 04:04:55;;;;;;;8.53;5.67;;;11.30;99.90;;;;;;1891308;75;21107;-87
2022/03/15 04:07:47;;;;;;;5.78;5.25;;;11.30;99.90;;;;;;1905125;75;21085;-88
2022/03/15 04:10:39;;;;;;;5.25;4.33;;;11.30;99.90;;;;;;1904371;75;21131;-87
2022/03/15 04:16:10;;;;;;;5.33;4.65;;;11.30;99.90;;;;;;1945358;72;22139;-87
2022/03/15 04:19:22;;;;;;;8.05;5.15;;;11.20;99.90;;;;;;1904388;75;21494;-89
2022/03/15 04:22:14;;;;;;;6.87;5.40;;;11.20;99.90;;;;;;1883886;75;21117;-89
2022/03/15 04:25:07;;;;;;;8.80;5.10;;;11.20;99.90;;;;;;1895123;75;21055;-88
2022/03/15 04:30:37;;;;;;;5.60;5.03;;;11.20;99.90;;;;;;1935667;72;22146;-87
2022/03/15 04:33:47;;;;;;;7.42;5.37;;;11.20;99.90;;;;;;1885992;75;21166;-88
2022/03/15 04:36:40;;;;;;;6.67;5.03;;;11.30;99.90;;;;;;1873136;76;21120;-88
2022/03/15 04:39:32;;;;;;;6.45;4.95;;;11.30;99.90;;;;;;1893559;75;21153;-87
2022/03/15 04:42:24;;;;;;;5.03;4.50;;;11.30;99.90;;;;;;1888465;75;21040;-87
2022/03/15 04:45:16;;;;;;;7.35;4.80;;;11.30;99.90;;;;;;1883627;75;21150;-88
2022/03/15 04:48:08;;;;;;;6.22;4.72;;;11.20;99.90;;;;;;1883527;75;21169;-88
2022/03/15 04:50:59;;;;;;;6.10;5.10;;;11.20;99.90;;;;;;1883546;75;21213;-87
2022/03/15 04:56:34;;;;;;;6.83;5.15;;;11.20;99.90;;;;;;1941966;72;22141;-87
2022/03/15 04:59:46;;;;;;;6.62;5.28;;;11.20;99.90;;;;;;1917946;73;21486;-88
2022/03/15 05:02:39;;;;;;;7.15;5.67;;;11.10;99.90;;;;;;1936716;73;21051;-88
2022/03/15 05:05:32;;;;;;;6.80;5.53;;;11.10;99.90;;;;;;1923498;73;21117;-88
2022/03/15 05:08:25;;;;;;;6.22;5.35;;;11.10;99.90;;;;;;1934657;73;21114;-88
2022/03/15 05:11:18;;;;;;;6.62;5.55;;;11.00;99.90;;;;;;1929287;73;21127;-88
2022/03/15 05:14:10;;;;;;;6.80;5.90;;;11.10;99.90;;;;;;1940832;73;21150;-88
2022/03/15 05:17:01;;;;;;;7.47;6.03;;;11.10;99.90;;;;;;1926972;73;21106;-88
2022/03/15 05:19:53;;;;;;;7.00;5.87;;;11.10;99.90;;;;;;1914108;73;21113;-88
2022/03/15 05:22:44;;;;;;;6.95;6.00;;;11.10;99.90;;;;;;1917570;75;21113;-88
2022/03/15 05:25:37;;;;;;;7.08;5.72;;;11.10;99.90;;;;;;1917579;75;21151;-88
2022/03/15 05:28:30;;;;;;;6.62;5.53;;;11.10;99.90;;;;;;1920007;73;21549;-88
2022/03/15 05:31:23;;;;;;;7.33;5.80;;;11.10;99.90;;;;;;1918077;75;21123;-88
2022/03/15 05:34:17;;;;;;;6.62;5.60;;;11.00;99.90;;;;;;1935093;73;21129;-88
2022/03/15 05:37:09;;;;;;;6.55;5.72;;;11.00;99.90;;;;;;1917427;75;21157;-88
2022/03/15 05:40:01;;;;;;;6.80;5.87;;;11.00;99.90;;;;;;1921792;73;21146;-88
2022/03/15 05:45:32;;;;;;;6.40;5.55;;;10.90;99.90;;;;;;1962680;72;22586;-87
2022/03/15 05:48:42;;;;;;;7.40;5.83;;;10.90;99.90;;;;;;1932998;73;21510;-89
2022/03/15 05:54:13;;;;;;;7.03;5.90;;;10.90;99.90;;;;;;1941929;72;22334;-87
2022/03/15 05:57:23;;;;;;;8.00;5.55;;;11.00;99.90;;;;;;1883497;75;21044;-89
2022/03/15 06:00:17;;;;;;;9.68;5.67;;;11.00;99.90;;;;;;1886404;75;21758;-88
2022/03/15 06:03:08;;;;;;;7.30;5.05;;;10.90;99.90;;;;;;1897552;75;21129;-88
2022/03/15 06:06:00;;;;;;;6.90;5.45;;;10.90;99.90;;;;;;1903819;75;21079;-88
2022/03/15 06:08:51;;;;;;;6.60;5.40;;;10.90;99.90;;;;;;1904044;75;21099;-88
2022/03/15 06:14:26;;;;;;;7.12;5.70;;;10.90;99.90;;;;;;1948494;72;22127;-87
2022/03/15 06:17:46;;;;;;;7.42;5.67;;;10.90;99.90;;;;;;1901555;75;21040;-89
2022/03/15 06:20:37;;;;;;;7.72;5.90;;;10.90;99.90;;;;;;1900159;75;21164;-88
2022/03/15 06:26:08;;;;;;;6.83;5.70;;;11.00;99.90;;;;;;1943590;72;22220;-87
2022/03/15 06:29:18;;;;;;;7.00;6.20;;;10.90;99.90;;;;;;1885605;75;21024;-88
2022/03/15 06:32:12;;;;;;;7.83;6.12;;;11.00;99.90;;;;;;1904190;75;21104;-88
2022/03/15 06:35:14;;;;;;;8.48;5.60;;;11.00;99.90;;;;;;1880950;75;21150;-74
2022/03/15 06:38:05;;;;;;;6.67;5.50;;;11.10;99.90;;;;;;1870678;75;21115;-75
2022/03/15 06:40:58;;;;;;;7.80;5.67;;;11.10;99.90;;;;;;1868932;75;21112;-76
2022/03/15 06:43:50;;;;;;;6.62;5.35;;;11.10;99.90;;;;;;1904374;75;21156;-75
2022/03/15 06:49:20;;;;;;;6.25;5.55;;;11.10;99.90;;;;;;1954572;72;22258;-77
2022/03/15 06:55:11;;;;;;;8.33;5.50;;;11.10;99.90;;;;;;1944604;72;22236;-77
2022/03/15 06:58:21;;;;;;;8.25;5.65;;;11.10;99.90;;;;;;1915349;75;21109;-76
2022/03/15 07:01:12;;;;;;;7.17;5.47;;;11.10;99.90;;;;;;1894974;75;21062;-76
2022/03/15 07:04:03;;;;;;;8.80;5.58;;;11.10;99.90;;;;;;1912521;75;21055;-76
2022/03/15 07:06:54;;;;;;;6.72;5.83;;;11.10;99.90;;;;;;1884371;75;21142;-77
2022/03/15 07:09:46;;;;;;;7.92;5.62;;;11.10;99.90;;;;;;1914631;75;21108;-83
2022/03/15 07:12:38;;;;;;;8.58;5.80;;;11.10;99.90;;;;;;1901965;73;21054;-83
2022/03/15 07:15:29;;;;;;;7.05;5.65;;;11.10;99.90;;;;;;1890051;75;21045;-83
2022/03/15 07:21:00;;;;;;;10.10;6.03;;;11.10;99.90;;;;;;1941286;72;22142;-83
2022/03/15 07:26:50;;;;;;;9.18;5.47;;;11.20;99.90;;;;;;1950808;72;22741;-83
2022/03/15 07:30:01;;;;;;;7.65;5.40;;;11.20;99.90;;;;;;1917423;75;21129;-84
2022/03/15 07:32:52;;;;;;;7.17;5.40;;;11.20;99.90;;;;;;1917106;75;21166;-83
2022/03/15 07:35:43;;;;;;;7.85;5.60;;;11.20;99.90;;;;;;1929685;73;21092;-82
2022/03/15 07:38:35;;;;;;;7.65;6.45;;;11.30;99.90;;;;;;1921216;73;21063;-82
2022/03/15 07:41:26;;;;;;;11.53;8.38;;;11.20;99.90;;;;;;1940163;73;21050;-82
2022/03/15 07:46:56;;;;;;;8.60;6.58;;;11.30;99.90;;;;;;1941734;72;22192;-84
2022/03/15 07:50:08;;;;;;;8.08;6.00;;;11.30;99.90;;;;;;1923369;74;21084;-83
2022/03/15 07:52:59;;;;;;;10.40;6.12;;;11.30;99.90;;;;;;1901686;74;21070;-83
2022/03/15 07:55:50;;;;;;;7.40;5.60;;;11.30;99.90;;;;;;1917402;74;21098;-83
2022/03/15 07:58:41;;;;;;;7.53;6.67;;;11.40;99.90;;;;;;1901572;75;21051;-83
2022/03/15 08:01:34;;;;;;;9.60;6.33;;;11.40;99.90;;;;;;1916943;74;21163;-83
2022/03/15 08:04:25;;;;;;;7.87;6.60;;;11.50;99.90;;;;;;1906185;74;21628;-87
2022/03/15 08:10:00;;;;;;;9.33;7.53;;;11.60;99.90;;;;;;1960748;72;22279;-81
2022/03/15 08:13:10;;;;;;;10.75;6.22;;;11.60;99.90;;;;;;1926346;73;21212;-82
2022/03/15 08:16:02;;;;;;;9.40;6.15;;;11.70;99.90;;;;;;1916944;75;21066;-82
2022/03/15 08:21:35;;;;;;;8.53;6.28;;;11.70;99.90;;;;;;1947344;72;22210;-84
2022/03/15 08:27:23;;;;;;;8.85;5.80;;;11.80;99.90;;;;;;1953018;72;22165;-83
2022/03/15 08:30:32;;;;;;;7.70;6.28;;;11.70;99.90;;;;;;1910716;73;21090;-83
2022/03/15 08:33:24;;;;;;;10.80;5.83;;;11.80;99.90;;;;;;1872902;76;21179;-83
2022/03/15 08:36:17;;;;;;;6.87;6.17;;;11.90;99.90;;;;;;1917271;75;21530;-82
2022/03/15 08:39:09;;;;;;;8.05;5.72;;;11.90;99.90;;;;;;1913314;75;21090;-82
2022/03/15 08:44:39;;;;;;;8.50;6.22;;;12.00;99.90;;;;;;1941063;72;22262;-83
2022/03/15 08:50:28;;;;;;;7.95;5.45;;;12.00;99.90;;;;;;1952495;72;22174;-83
2022/03/15 08:53:38;;;;;;;8.35;5.80;;;12.00;99.90;;;;;;1913349;73;21107;-84
2022/03/15 08:59:12;;;;;;;9.35;6.40;;;12.10;99.90;;;;;;1918862;72;22184;-84
2022/03/15 09:02:22;;;;;;;10.28;6.33;;;12.10;99.90;;;;;;1894922;75;21135;-82
2022/03/15 09:05:18;;;;;;;8.70;6.00;;;12.10;99.90;;;;;;1884551;76;21164;-82
2022/03/15 09:08:07;;;;;;;12.03;7.20;;;12.10;99.90;;;;;;1902961;75;21549;-82
2022/03/15 09:10:58;;;;;;;8.63;5.83;;;12.30;99.90;;;;;;1910035;75;21220;-82
2022/03/15 09:13:49;;;;;;;9.40;5.75;;;12.20;99.90;;;;;;1891377;75;21103;-81
2022/03/15 09:19:21;;;;;;;8.30;6.05;;;12.20;99.90;;;;;;1965728;72;22289;-81
2022/03/15 09:22:32;;;;;;;8.70;5.50;;;12.30;99.90;;;;;;1921466;73;21051;-83
2022/03/15 09:25:24;;;;;;;10.65;5.62;;;12.40;99.90;;;;;;1920237;73;21113;-83
2022/03/15 09:30:55;;;;;;;7.53;5.60;;;12.50;99.90;;;;;;1954288;72;22179;-84
2022/03/15 09:34:05;;;;;;;7.90;5.08;;;12.40;99.90;;;;;;1912204;75;21123;-83
2022/03/15 09:39:34;;;;;;;8.93;5.90;;;12.50;99.90;;;;;;1962389;72;22212;-83
2022/03/15 09:42:46;;;;;;;11.48;6.40;;;12.60;99.90;;;;;;1917264;75;21050;-82
2022/03/15 09:45:38;;;;;;;11.18;5.65;;;12.70;99.90;;;;;;1917228;75;21138;-83
2022/03/15 09:48:30;;;;;;;9.53;6.97;;;12.80;99.90;;;;;;1917223;75;21054;-83
2022/03/15 09:51:23;;;;;;;8.43;5.92;;;12.80;99.90;;;;;;1917429;75;21059;-83
2022/03/15 09:54:17;;;;;;;8.95;5.53;;;12.80;99.90;;;;;;1926442;73;21096;-84
2022/03/15 09:57:09;;;;;;;8.40;5.97;;;12.90;99.90;;;;;;1934740;73;21035;-83
2022/03/15 10:00:06;;;;;;;7.67;5.83;;;13.00;99.90;;;;;;1929156;73;21167;-82
2022/03/15 10:03:00;;;;;;;7.62;4.75;;;13.20;99.90;;;;;;1921219;73;21092;-82
2022/03/15 10:05:52;;;;;;;7.97;4.92;;;13.30;99.90;;;;;;1928259;73;21110;-83
2022/03/15 10:11:23;;;;;;;6.12;4.92;;;13.00;99.90;;;;;;1956086;72;22294;-84
2022/03/15 10:14:43;;;;;;;7.12;4.80;;;12.90;99.90;;;;;;1895091;75;21546;-85
2022/03/15 10:20:28;;;;;;;8.43;5.15;;;12.90;99.90;;;;;;1934750;72;22211;-84
2022/03/15 10:26:24;;;;;;;8.53;5.15;;;13.00;99.90;;;;;;1958314;72;22120;-84
2022/03/15 10:29:36;;;;;;;8.03;4.90;;;12.80;99.90;;;;;;1917547;75;21102;-83
2022/03/15 10:35:10;;;;;;;7.10;4.92;;;12.70;99.90;;;;;;1941580;72;22259;-82
2022/03/15 10:38:20;;;;;;;9.18;5.50;;;12.60;99.90;;;;;;1914635;74;21505;-83
2022/03/15 10:41:40;;;;;;;6.40;5.17;;;12.70;99.90;;;;;;1906104;75;21117;-83
2022/03/15 10:45:09;;;;;;;7.53;5.30;;;12.90;99.90;;;;;;1887452;75;21066;-83
2022/03/15 10:50:58;;;;;;;6.28;4.75;;;13.00;99.90;;;;;;1975747;72;22123;-84
2022/03/15 10:54:09;;;;;;;8.10;4.87;;;13.10;99.90;;;;;;1918469;73;21137;-83
2022/03/15 10:59:43;;;;;;;8.70;5.12;;;13.40;99.90;;;;;;1944216;72;22309;-82
2022/03/15 11:02:52;;;;;;;10.43;5.20;;;13.50;99.90;;;;;;1907830;73;21232;-83
2022/03/15 11:05:47;;;;;;;8.88;5.12;;;13.60;99.90;;;;;;1917031;75;21054;-83
2022/03/15 11:11:25;;;;;;;6.97;4.22;;;13.60;99.90;;;;;;1944946;72;22241;-85
2022/03/15 11:17:17;;;;;;;6.47;4.55;;;14.00;99.90;;;;;;1946816;72;22217;-85
2022/03/15 11:20:29;;;;;;;6.45;4.85;;;14.00;99.90;;;;;;1884251;76;21118;-83
2022/03/15 11:26:08;;;;;;;6.62;3.95;;;14.40;99.90;;;;;;1957372;72;22159;-85
2022/03/15 11:29:20;;;;;;;5.92;4.33;;;14.40;99.90;;;;;;1913656;74;21088;-83
2022/03/15 11:32:14;;;;;;;5.42;3.40;;;14.50;99.90;;;;;;1903561;74;21112;-84
2022/03/15 11:35:08;;;;;;;5.40;2.87;;;14.50;99.90;;;;;;1906592;75;21529;-84
2022/03/15 11:38:02;;;;;;;4.00;2.80;;;14.70;99.90;;;;;;1905302;75;21109;-83
2022/03/15 11:40:55;;;;;;;3.80;2.60;;;14.90;99.90;;;;;;1884239;75;21625;-83
2022/03/15 11:43:56;;;;;;;5.92;3.45;;;15.00;99.90;;;;;;1895746;75;21119;-84
2022/03/15 11:49:37;;;;;;;5.25;4.10;;;15.50;99.90;;;;;;1951773;72;22211;-84
2022/03/15 11:52:53;;;;;;;4.72;3.52;;;15.70;99.90;;;;;;1886226;75;21105;-83
2022/03/15 11:55:49;;;;;;;4.53;3.50;;;16.00;99.90;;;;;;1897832;75;21091;-82
2022/03/15 11:58:41;;;;;;;3.27;2.62;;;16.20;99.90;;;;;;1899732;75;21573;-83
2022/03/15 12:01:33;;;;;;;5.42;3.15;;;16.20;99.90;;;;;;1907288;75;21110;-82
2022/03/15 12:04:29;;;;;;;4.62;2.42;;;16.10;99.90;;;;;;1884740;76;21083;-82
2022/03/15 12:07:36;;;;;;;5.05;2.37;;;16.20;99.90;;;;;;1906410;75;21201;-82
2022/03/15 12:10:26;;;;;;;4.50;2.27;;;16.30;99.90;;;;;;1904879;75;21100;-83
2022/03/15 12:17:21;;;;;;;4.30;2.10;;;16.60;99.90;;;;;;1847929;75;21059;-76
2022/03/15 12:20:14;;;;;;;4.22;2.20;;;16.60;99.90;;;;;;1895670;75;21135;-83
2022/03/15 12:23:07;;;;;;;3.25;2.10;;;16.40;99.90;;;;;;1851982;77;21138;-75
2022/03/15 12:26:01;;;;;;;2.95;1.87;;;16.40;99.90;;;;;;1897014;75;21098;-75
2022/03/15 12:29:03;;;;;;;3.58;2.02;;;16.40;99.90;;;;;;1895242;75;21487;-75
2022/03/15 12:31:57;;;;;;;5.00;2.00;;;16.50;99.90;;;;;;1890930;73;21129;-75
2022/03/15 12:34:55;;;;;;;3.72;2.02;;;16.60;99.90;;;;;;1885215;75;21075;-75
2022/03/15 12:37:46;;;;;;;3.75;2.00;;;16.70;99.90;;;;;;1899210;75;21054;-75
2022/03/15 12:40:42;;;;;;;4.42;1.95;;;16.60;99.90;;;;;;1897849;75;21133;-75
2022/03/15 12:43:34;;;;;;;6.45;1.42;;;16.80;99.90;;;;;;1894491;75;21123;-75
2022/03/15 12:46:30;;;;;;;4.67;1.87;;;17.30;99.90;;;;;;1914049;75;21145;-76
2022/03/15 12:49:20;;;;;;;4.62;1.90;;;17.60;99.90;;;;;;1898001;74;21120;-75
2022/03/15 12:52:16;;;;;;;5.00;2.50;;;17.70;99.90;;;;;;1888344;75;21201;-75
2022/03/15 12:55:10;;;;;;;5.10;1.70;;;17.60;99.90;;;;;;1883991;75;21056;-75
2022/03/15 12:58:05;;;;;;;4.05;1.77;;;17.70;99.90;;;;;;1888017;75;21128;-75
2022/03/15 13:00:56;;;;;;;5.47;2.65;;;17.70;99.90;;;;;;1906021;75;21270;-75
2022/03/15 13:03:49;;;;;;;5.83;2.33;;;17.90;99.90;;;;;;1873004;74;21049;-75
2022/03/15 13:06:43;;;;;;;6.03;2.30;;;18.20;99.90;;;;;;1897548;75;21095;-75
2022/03/15 13:09:35;;;;;;;7.25;1.77;;;18.40;99.90;;;;;;1894543;75;21095;-75
2022/03/15 13:12:33;;;;;;;3.27;1.20;;;18.70;99.90;;;;;;1882383;75;21094;-75
2022/03/15 13:15:25;;;;;;;4.83;1.70;;;19.30;99.90;;;;;;1882673;75;21122;-75
2022/03/15 13:18:20;;;;;;;7.40;1.80;;;19.70;99.90;;;;;;1899396;75;21098;-75
2022/03/15 13:21:13;;;;;;;4.30;2.33;;;20.00;99.90;;;;;;1884746;75;21088;-75
2022/03/15 13:24:11;;;;;;;3.98;1.25;;;20.30;99.90;;;;;;1882519;74;21155;-76
2022/03/15 13:27:03;;;;;;;5.60;1.40;;;20.60;99.90;;;;;;1894098;75;21157;-76
2022/03/15 13:29:55;;;;;;;3.77;1.02;;;20.70;99.90;;;;;;1882971;75;21055;-74
2022/03/15 13:32:54;;;;;;;3.52;1.10;;;21.00;99.90;;;;;;1886492;74;21122;-75
2022/03/15 13:35:59;;;;;;;6.17;2.05;;;21.20;99.90;;;;;;1915470;75;21129;-75
2022/03/15 13:38:52;;;;;;;5.47;1.50;;;21.20;99.90;;;;;;1884045;75;21132;-75
2022/03/15 13:41:47;;;;;;;4.95;1.30;;;21.00;99.90;;;;;;1911788;75;21499;-75
2022/03/15 13:44:39;;;;;;;4.10;1.17;;;21.10;99.50;;;;;;1893687;75;21051;-76
2022/03/15 13:47:30;;;;;;;4.83;1.02;;;21.30;97.40;;;;;;1901589;75;21043;-75
2022/03/15 13:50:24;;;;;;;5.40;1.37;;;21.60;95.20;;;;;;1896329;75;21241;-75
2022/03/15 13:53:20;;;;;;;5.53;1.95;;;21.70;94.40;;;;;;1882547;75;21044;-75
2022/03/15 13:56:14;;;;;;;4.00;1.47;;;21.80;94.80;;;;;;1894569;75;21143;-75
2022/03/15 14:01:49;;;;;;;5.80;1.20;;;22.00;92.90;;;;;;1962115;72;22213;-77
2022/03/15 14:05:05;;;;;;;5.62;1.10;;;22.10;92.70;;;;;;1930345;73;21131;-75
2022/03/15 14:08:05;;;;;;;4.50;1.25;;;22.20;91.70;;;;;;1941995;73;21120;-76
2022/03/15 14:10:56;;;;;;;5.70;1.45;;;22.20;91.10;;;;;;1917286;75;21103;-75
2022/03/15 14:14:05;;;;;;;4.60;1.47;;;22.20;91.00;;;;;;1917293;75;21595;-75
2022/03/15 14:16:57;;;;;;;7.45;1.40;;;22.20;89.20;;;;;;1917287;75;21104;-75
2022/03/15 14:19:51;;;;;;;4.92;1.70;;;22.20;90.30;;;;;;1917363;75;21243;-75
2022/03/15 14:22:49;;;;;;;4.78;1.82;;;22.00;93.30;;;;;;1917425;75;21047;-75
2022/03/15 14:25:41;;;;;;;5.67;1.92;;;21.40;95.70;;;;;;1917474;75;21537;-75
2022/03/15 14:28:34;;;;;;;8.08;2.12;;;21.10;95.20;;;;;;1917088;73;21105;-75
2022/03/15 14:31:31;;;;;;;5.92;2.33;;;21.00;97.30;;;;;;1917401;75;21145;-75
2022/03/15 14:34:24;;;;;;;6.47;2.47;;;20.80;98.90;;;;;;1918975;73;21197;-75
2022/03/15 14:37:20;;;;;;;6.78;2.87;;;20.30;99.90;;;;;;1917662;75;21098;-75
2022/03/15 14:40:16;;;;;;;5.65;3.08;;;19.80;99.90;;;;;;1917148;75;21156;-75
2022/03/15 14:43:08;;;;;;;5.60;2.52;;;19.50;99.90;;;;;;1917092;75;21556;-75
2022/03/15 14:46:09;;;;;;;7.55;2.55;;;19.30;99.90;;;;;;1917221;75;21113;-75
2022/03/15 14:48:54;;;;;;;6.15;2.30;;;19.00;99.90;;;;;;1917498;75;21054;-75
2022/03/15 14:51:46;;;;;;;3.77;2.52;;;19.00;99.90;;;;;;1917096;75;21057;-75
2022/03/15 14:54:39;;;;;;;6.80;2.98;;;19.30;99.90;;;;;;1922265;73;21122;-75
2022/03/15 14:57:30;;;;;;;6.95;2.50;;;19.50;99.90;;;;;;1928735;73;21166;-74
2022/03/15 15:00:22;;;;;;;7.67;2.90;;;19.50;99.90;;;;;;1917533;74;21064;-75
2022/03/15 15:03:13;;;;;;;3.70;2.50;;;19.50;99.90;;;;;;1926623;74;21167;-75
2022/03/15 15:06:05;;;;;;;5.20;2.25;;;19.20;99.90;;;;;;1950166;73;21203;-76
2022/03/15 15:09:00;;;;;;;4.45;1.90;;;18.90;99.90;;;;;;1927014;74;21106;-75
2022/03/15 15:11:50;;;;;;;8.53;1.70;;;18.80;99.90;;;;;;1926889;74;22356;-75
2022/03/15 15:14:42;;;;;;;3.12;1.95;;;18.80;99.90;;;;;;1926011;73;21116;-76
2022/03/15 15:17:34;;;;;;;6.50;2.50;;;18.80;99.90;;;;;;1879579;76;21051;-75
2022/03/15 15:20:30;;;;;;;5.12;2.40;;;18.70;99.90;;;;;;1923067;73;21617;-75
2022/03/15 15:23:20;;;;;;;7.50;2.30;;;18.80;99.90;;;;;;1929748;73;21788;-75
2022/03/15 15:26:11;;;;;;;4.72;1.75;;;18.90;99.90;;;;;;1931936;73;21545;-75
2022/03/15 15:29:03;;;;;;;8.38;2.55;;;18.50;99.90;;;;;;1917747;73;21116;-75
2022/03/15 15:31:54;;;;;;;5.92;2.40;;;18.70;99.90;;;;;;1916389;75;21052;-75
2022/03/15 15:34:50;;;;;;;3.98;2.20;;;18.60;99.90;;;;;;1917224;73;21141;-75
2022/03/15 15:37:49;;;;;;;4.05;1.80;;;18.60;99.90;;;;;;1916588;75;21595;-75
2022/03/15 15:40:36;;;;;;;3.62;2.05;;;18.60;99.90;;;;;;1916365;75;21050;-75
2022/03/15 15:43:28;;;;;;;6.90;3.65;;;18.50;99.90;;;;;;1916338;73;21097;-75
2022/03/15 15:46:20;;;;;;;5.92;2.30;;;18.30;99.90;;;;;;1916506;75;21051;-75
2022/03/15 15:49:14;;;;;;;4.37;2.35;;;18.40;99.90;;;;;;1935534;73;21140;-75
2022/03/15 15:52:07;;;;;;;5.33;2.35;;;18.50;99.90;;;;;;1916575;75;22247;-76
2022/03/15 15:54:59;;;;;;;5.75;2.58;;;18.60;99.90;;;;;;1916685;75;21577;-76
2022/03/15 15:57:58;;;;;;;5.87;2.47;;;18.60;99.90;;;;;;1916570;75;21095;-76
2022/03/15 16:00:47;;;;;;;6.78;2.70;;;18.30;99.90;;;;;;1916552;75;21098;-76
2022/03/15 16:03:40;;;;;;;6.55;2.50;;;18.20;99.90;;;;;;1917160;73;21568;-76
2022/03/15 16:06:31;;;;;;;5.17;2.20;;;18.70;99.90;;;;;;1916680;75;21063;-75
2022/03/15 16:09:25;;;;;;;4.70;2.52;;;18.70;99.90;;;;;;1929879;73;21061;-75
2022/03/15 16:12:18;;;;;;;4.97;2.10;;;19.50;99.90;;;;;;1939355;73;21097;-76
2022/03/15 16:15:12;;;;;;;5.62;2.50;;;20.20;99.90;;;;;;1916381;75;21614;-76
2022/03/15 16:18:04;;;;;;;4.85;2.05;;;21.20;99.90;;;;;;1916817;75;21047;-75
2022/03/15 16:20:58;;;;;;;6.40;2.70;;;20.90;99.90;;;;;;1916674;73;21123;-76
2022/03/15 16:23:51;;;;;;;5.35;2.12;;;21.00;99.90;;;;;;1916876;75;21174;-75
2022/03/15 16:26:42;;;;;;;7.47;2.50;;;19.70;99.90;;;;;;1916685;75;21178;-75
2022/03/15 16:29:34;;;;;;;8.90;2.65;;;20.10;99.90;;;;;;1916812;75;21087;-76
2022/03/15 16:32:28;;;;;;;5.65;2.47;;;20.50;99.90;;;;;;1916577;75;21125;-75
2022/03/15 16:35:21;;;;;;;4.53;2.08;;;20.10;99.90;;;;;;1924055;73;21102;-75
2022/03/15 16:38:15;;;;;;;4.70;1.80;;;20.10;99.90;;;;;;1928226;73;21118;-75
2022/03/15 16:41:07;;;;;;;6.25;2.50;;;20.00;99.90;;;;;;1930656;73;21138;-75
2022/03/15 16:43:59;;;;;;;5.05;2.30;;;19.70;99.90;;;;;;1931309;73;21135;-74
2022/03/15 16:46:50;;;;;;;5.65;2.77;;;19.00;99.90;;;;;;1927567;73;21124;-75
2022/03/15 16:52:23;;;;;;;7.40;2.83;;;17.80;99.90;;;;;;1957723;72;22250;-75
2022/03/15 16:55:34;;;;;;;7.58;3.05;;;17.50;99.90;;;;;;1901451;75;21114;-75
2022/03/15 17:01:36;;;;;;;4.28;2.83;;;17.20;99.90;;;;;;1895497;75;21887;-76
2022/03/15 17:07:36;;;;;;;3.98;2.45;;;17.20;99.90;;;;;;1894479;75;21163;-75
2022/03/15 17:10:28;;;;;;;7.28;2.90;;;17.30;99.90;;;;;;1896450;75;21161;-75
2022/03/15 17:13:20;;;;;;;8.63;3.10;;;17.20;99.90;;;;;;1899879;75;21068;-77
2022/03/15 17:16:19;;;;;;;7.30;3.00;;;17.20;99.90;;;;;;1895254;75;21131;-76
2022/03/15 17:19:10;;;;;;;7.55;2.60;;;17.00;99.90;;;;;;1888951;75;21554;-75
2022/03/15 17:22:01;;;;;;;7.47;2.90;;;16.80;99.90;;;;;;1905780;75;21085;-75
2022/03/15 17:25:02;;;;;;;7.35;2.58;;;16.50;99.90;;;;;;1884511;76;21554;-75
2022/03/15 17:27:48;;;;;;;5.80;2.98;;;16.40;99.90;;;;;;1899143;75;21172;-75
2022/03/15 17:30:43;;;;;;;7.05;2.87;;;16.20;99.90;;;;;;1895054;75;21510;-75
2022/03/15 17:33:35;;;;;;;4.62;2.83;;;16.10;99.90;;;;;;1891568;73;21141;-75